createdAt,value
2022-10-11T00:01:39.129Z,21.60
2022-10-11T00:04:33.673Z,21.60
2022-10-11T00:07:28.067Z,21.70
2022-10-11T00:10:22.491Z,21.70
2022-10-11T00:13:16.912Z,21.70
2022-10-11T00:16:13.352Z,21.80
2022-10-11T00:19:07.745Z,21.90
2022-10-11T00:22:03.992Z,22.00
2022-10-11T00:25:00.021Z,22.10
2022-10-11T00:27:55.404Z,22.20
2022-10-11T00:30:50.164Z,22.30
2022-10-11T00:33:44.897Z,22.30
2022-10-11T00:36:39.245Z,22.30
2022-10-11T00:39:33.689Z,22.30
2022-10-11T00:42:28.714Z,22.40
2022-10-11T00:45:29.104Z,22.60
2022-10-11T00:48:31.946Z,22.70
2022-10-11T00:51:45.673Z,22.80
2022-10-11T00:54:43.878Z,22.90
2022-10-11T00:57:43.804Z,22.90
2022-10-11T01:00:38.149Z,22.90
2022-10-11T01:03:34.826Z,22.90
2022-10-11T01:06:29.838Z,22.90
2022-10-11T01:09:25.059Z,22.90
2022-10-11T01:12:26.240Z,23.00
2022-10-11T01:15:45.025Z,23.00
2022-10-11T01:19:17.107Z,23.10
2022-10-11T01:22:50.732Z,23.20
2022-10-11T01:26:12.518Z,23.20
2022-10-11T01:29:31.136Z,23.10
2022-10-11T01:32:31.233Z,23.00
2022-10-11T01:35:45.119Z,22.90
2022-10-11T01:39:01.252Z,22.90
2022-10-11T01:41:59.036Z,22.80
2022-10-11T01:44:53.935Z,22.80
2022-10-11T01:47:48.644Z,22.70
2022-10-11T01:50:55.386Z,22.70
2022-10-11T01:54:20.008Z,22.70
2022-10-11T01:57:41.834Z,22.70
2022-10-11T02:00:53.679Z,22.70
2022-10-11T02:03:53.807Z,22.70
2022-10-11T02:06:59.300Z,22.60
2022-10-11T02:10:15.040Z,22.60
2022-10-11T02:13:09.364Z,22.60
2022-10-11T02:16:07.891Z,22.60
2022-10-11T02:19:06.279Z,22.60
2022-10-11T02:22:06.262Z,22.80
2022-10-11T02:25:03.736Z,22.90
2022-10-11T02:28:03.323Z,22.90
2022-10-11T02:31:01.843Z,22.90
2022-10-11T02:34:08.856Z,23.10
2022-10-11T02:37:12.260Z,23.10
2022-10-11T02:40:22.223Z,23.10
2022-10-11T02:43:26.717Z,23.10
2022-10-11T02:46:21.731Z,23.20
2022-10-11T02:49:18.151Z,23.30
2022-10-11T02:52:12.517Z,23.40
2022-10-11T02:55:07.525Z,23.50
2022-10-11T02:58:02.834Z,23.60
2022-10-11T03:00:57.448Z,23.70
2022-10-11T03:03:51.991Z,23.70
2022-10-11T03:06:46.442Z,23.70
2022-10-11T03:09:40.805Z,23.80
2022-10-11T03:12:35.509Z,23.90
2022-10-11T03:15:30.081Z,23.90
2022-10-11T03:18:24.443Z,24.00
2022-10-11T03:21:18.925Z,24.10
2022-10-11T03:24:13.364Z,24.10
2022-10-11T03:27:07.736Z,24.10
2022-10-11T03:30:02.519Z,24.00
2022-10-11T03:32:57.039Z,24.00
2022-10-11T03:35:51.836Z,24.00
2022-10-11T03:38:46.226Z,23.90
2022-10-11T03:41:40.828Z,23.90
2022-10-11T03:44:35.272Z,23.90
2022-10-11T03:47:29.901Z,23.80
2022-10-11T03:50:25.354Z,23.80
2022-10-11T03:53:19.775Z,23.80
2022-10-11T03:56:14.748Z,23.80
2022-10-11T03:59:09.544Z,23.80
2022-10-11T04:02:03.976Z,23.80
2022-10-11T04:04:58.402Z,23.80
2022-10-11T04:07:53.111Z,23.80
2022-10-11T04:10:48.533Z,23.80
2022-10-11T04:13:42.964Z,23.90
2022-10-11T04:16:39.854Z,23.90
2022-10-11T04:19:34.216Z,23.90
2022-10-11T04:22:28.665Z,23.90
2022-10-11T04:25:23.011Z,23.80
2022-10-11T04:28:17.698Z,23.80
2022-10-11T04:31:12.295Z,23.80
2022-10-11T04:34:06.769Z,23.90
2022-10-11T04:37:01.232Z,23.90
2022-10-11T04:39:56.068Z,23.90
2022-10-11T04:42:51.836Z,24.00
2022-10-11T04:45:46.908Z,24.00
2022-10-11T04:48:41.252Z,24.10
2022-10-11T04:51:35.632Z,24.10
2022-10-11T04:54:30.075Z,24.10
2022-10-11T04:57:24.479Z,24.20
2022-10-11T05:00:19.072Z,24.20
2022-10-11T05:03:13.644Z,24.10
2022-10-11T05:06:08.686Z,24.20
2022-10-11T05:09:03.456Z,24.10
2022-10-11T05:11:57.773Z,24.20
2022-10-11T05:14:52.265Z,24.30
2022-10-11T05:17:46.640Z,24.40
2022-10-11T05:20:41.002Z,24.40
2022-10-11T05:23:37.073Z,24.50
2022-10-11T05:26:32.072Z,24.70
2022-10-11T05:29:27.043Z,24.90
2022-10-11T05:32:22.484Z,25.00
2022-10-11T05:35:19.164Z,25.00
2022-10-11T05:38:14.169Z,25.00
2022-10-11T05:41:10.322Z,25.10
2022-10-11T05:44:04.678Z,25.20
2022-10-11T05:46:59.107Z,25.30
2022-10-11T05:49:53.704Z,25.40
2022-10-11T05:52:48.336Z,25.50
2022-10-11T05:55:44.331Z,25.70
2022-10-11T05:58:38.638Z,25.80
2022-10-11T06:01:33.348Z,25.90
2022-10-11T06:04:28.283Z,26.00
2022-10-11T06:07:22.915Z,26.20
2022-10-11T06:10:17.343Z,26.40
2022-10-11T06:13:12.353Z,26.50
2022-10-11T06:16:07.565Z,26.60
2022-10-11T06:19:02.775Z,26.70
2022-10-11T06:21:57.381Z,26.70
2022-10-11T06:24:52.021Z,26.70
2022-10-11T06:27:48.721Z,26.60
2022-10-11T06:30:43.286Z,26.60
2022-10-11T06:33:38.363Z,26.50
2022-10-11T06:36:32.902Z,26.50
2022-10-11T06:39:27.412Z,26.40
2022-10-11T06:42:21.971Z,26.30
2022-10-11T06:45:16.405Z,26.20
2022-10-11T06:48:10.879Z,26.10
2022-10-11T06:51:06.383Z,26.10
2022-10-11T06:54:03.066Z,26.10
2022-10-11T06:56:57.555Z,26.00
2022-10-11T06:59:51.987Z,26.00
2022-10-11T07:02:46.417Z,26.00
2022-10-11T07:05:40.805Z,26.00
2022-10-11T07:08:35.655Z,25.90
2022-10-11T07:11:30.670Z,25.90
2022-10-11T07:14:25.190Z,25.90
2022-10-11T07:17:19.697Z,25.90
2022-10-11T07:20:14.705Z,25.90
2022-10-11T07:23:09.212Z,25.90
2022-10-11T07:26:04.531Z,25.90
2022-10-11T07:28:59.591Z,25.90
2022-10-11T07:31:53.987Z,25.90
2022-10-11T07:34:48.551Z,25.90
2022-10-11T07:37:42.942Z,25.90
2022-10-11T07:40:44.158Z,25.90
2022-10-11T07:43:39.494Z,25.80
2022-10-11T07:46:34.225Z,25.80
2022-10-11T07:49:28.558Z,25.80
2022-10-11T07:52:23.307Z,25.90
2022-10-11T07:55:17.700Z,25.90
2022-10-11T07:58:13.997Z,25.90
2022-10-11T08:01:09.429Z,25.90
2022-10-11T08:04:03.943Z,25.90
2022-10-11T08:06:58.335Z,25.90
2022-10-11T08:09:54.339Z,25.80
2022-10-11T08:12:52.349Z,25.80
2022-10-11T08:15:47.419Z,25.70
2022-10-11T08:18:42.779Z,25.70
2022-10-11T08:21:37.612Z,25.60
2022-10-11T08:24:35.892Z,25.50
2022-10-11T08:27:32.657Z,25.40
2022-10-11T08:30:27.017Z,25.40
2022-10-11T08:33:24.189Z,25.40
2022-10-11T08:36:18.557Z,25.40
2022-10-11T08:39:13.104Z,25.30
2022-10-11T08:42:10.176Z,25.30
2022-10-11T08:45:15.781Z,25.20
2022-10-11T08:48:30.160Z,25.20
2022-10-11T08:51:31.880Z,25.20
2022-10-11T08:54:46.054Z,25.10
2022-10-11T08:57:42.119Z,25.10
2022-10-11T09:00:39.530Z,25.10
2022-10-11T09:03:46.223Z,25.00
2022-10-11T09:07:06.677Z,25.00
2022-10-11T09:10:18.598Z,24.90
2022-10-11T09:13:44.873Z,24.90
2022-10-11T09:16:52.101Z,24.90
2022-10-11T09:20:07.852Z,24.80
2022-10-11T09:23:14.247Z,24.70
2022-10-11T09:26:20.432Z,24.70
2022-10-11T09:29:39.140Z,24.70
2022-10-11T09:32:40.153Z,24.60
2022-10-11T09:35:40.475Z,24.60
2022-10-11T09:38:46.741Z,24.60
2022-10-11T09:42:00.671Z,24.60
2022-10-11T09:44:56.220Z,24.60
2022-10-11T09:47:54.188Z,24.60
2022-10-11T09:50:48.693Z,24.60
2022-10-11T09:53:52.183Z,24.60
2022-10-11T09:56:48.113Z,24.70
2022-10-11T09:59:44.700Z,24.70
2022-10-11T10:02:50.067Z,24.70
2022-10-11T10:05:44.567Z,24.70
2022-10-11T10:08:39.478Z,24.70
2022-10-11T10:11:38.964Z,24.80
2022-10-11T10:14:34.048Z,24.70
2022-10-11T10:17:28.730Z,24.70
2022-10-11T10:20:31.318Z,24.70
2022-10-11T10:23:38.516Z,24.70
2022-10-11T10:26:33.893Z,24.70
2022-10-11T10:29:28.356Z,24.60
2022-10-11T10:32:32.611Z,24.60
2022-10-11T10:35:38.010Z,24.50
2022-10-11T10:38:52.166Z,24.50
2022-10-11T10:41:47.168Z,24.50
2022-10-11T10:44:41.592Z,24.40
2022-10-11T10:47:54.521Z,24.40
2022-10-11T10:51:00.467Z,24.40
2022-10-11T10:54:18.043Z,24.30
2022-10-11T10:57:15.219Z,24.30
2022-10-11T11:00:17.334Z,24.30
2022-10-11T11:03:35.801Z,24.30
2022-10-11T11:06:36.541Z,24.30
2022-10-11T11:09:46.386Z,24.30
2022-10-11T11:13:25.232Z,24.30
2022-10-11T11:17:00.798Z,24.30
2022-10-11T11:20:05.207Z,24.30
2022-10-11T11:23:24.659Z,24.10
2022-10-11T11:26:19.048Z,24.10
2022-10-11T11:29:44.827Z,24.00
2022-10-11T11:33:13.520Z,24.00
2022-10-11T11:36:12.591Z,24.10
2022-10-11T11:39:13.425Z,24.00
2022-10-11T11:42:23.852Z,24.00
2022-10-11T11:45:29.517Z,24.10
2022-10-11T11:48:26.886Z,24.00
2022-10-11T11:51:35.904Z,24.00
2022-10-11T11:55:04.731Z,24.00
2022-10-11T11:58:06.826Z,23.90
2022-10-11T12:01:31.798Z,23.90
2022-10-11T12:04:33.369Z,23.80
2022-10-11T12:07:30.124Z,23.80
2022-10-11T12:10:30.886Z,23.70
2022-10-11T12:13:42.087Z,23.70
2022-10-11T12:16:36.550Z,23.70
2022-10-11T12:19:30.922Z,23.70
2022-10-11T12:22:31.219Z,23.70
2022-10-11T12:25:29.666Z,23.70
2022-10-11T12:28:40.543Z,23.80
2022-10-11T12:31:39.387Z,23.80
2022-10-11T12:34:37.354Z,23.70
2022-10-11T12:37:34.754Z,23.70
2022-10-11T12:41:15.308Z,23.70
2022-10-11T12:44:23.200Z,23.70
2022-10-11T12:47:59.002Z,23.70
2022-10-11T12:51:00.775Z,23.70
2022-10-11T12:54:37.279Z,23.60
2022-10-11T12:58:09.942Z,23.60
2022-10-11T13:01:15.649Z,23.60
2022-10-11T13:04:13.169Z,23.60
2022-10-11T13:07:24.639Z,23.60
2022-10-11T13:10:26.220Z,23.60
2022-10-11T13:13:32.540Z,23.70
2022-10-11T13:16:45.658Z,23.60
2022-10-11T13:22:37.246Z,23.60
2022-10-11T13:25:38.788Z,23.60
2022-10-11T13:28:36.508Z,23.60
2022-10-11T13:31:31.321Z,23.60
2022-10-11T13:34:26.107Z,23.60
2022-10-11T13:37:24.155Z,23.60
2022-10-11T13:40:22.008Z,23.60
2022-10-11T13:43:17.296Z,23.50
2022-10-11T13:46:20.837Z,23.30
2022-10-11T13:49:38.958Z,23.10
2022-10-11T13:52:33.848Z,22.90
2022-10-11T13:55:37.600Z,22.80
2022-10-11T13:58:47.755Z,22.70
2022-10-11T14:01:46.104Z,22.60
2022-10-11T14:04:43.834Z,22.60
2022-10-11T14:07:40.175Z,22.50
2022-10-11T14:10:35.046Z,22.60
2022-10-11T14:13:38.693Z,22.60
2022-10-11T14:16:33.117Z,22.70
2022-10-11T14:19:29.852Z,22.70
2022-10-11T14:22:24.198Z,22.70
2022-10-11T14:25:18.637Z,22.70
2022-10-11T14:28:16.184Z,22.70
2022-10-11T14:31:11.869Z,22.70
2022-10-11T14:34:07.028Z,22.80
2022-10-11T14:37:01.752Z,22.80
2022-10-11T14:39:56.359Z,22.80
2022-10-11T14:42:51.259Z,22.80
2022-10-11T14:45:45.578Z,22.80
2022-10-11T14:48:56.517Z,22.80
2022-10-11T14:51:52.892Z,22.80
2022-10-11T14:54:47.693Z,22.80
2022-10-11T14:57:41.997Z,22.80
2022-10-11T15:00:37.491Z,22.70
2022-10-11T15:03:31.815Z,22.60
2022-10-11T15:06:33.656Z,22.60
2022-10-11T15:09:28.053Z,22.60
2022-10-11T15:12:22.459Z,22.50
2022-10-11T15:15:24.985Z,22.50
2022-10-11T15:18:19.820Z,22.50
2022-10-11T15:21:16.074Z,22.40
2022-10-11T15:24:10.413Z,22.30
2022-10-11T15:27:04.839Z,22.30
2022-10-11T15:29:59.211Z,22.20
2022-10-11T15:32:54.007Z,22.20
2022-10-11T15:35:49.177Z,22.10
2022-10-11T15:38:44.366Z,22.00
2022-10-11T15:41:38.736Z,22.00
2022-10-11T15:44:33.058Z,22.00
2022-10-11T15:47:27.443Z,21.90
2022-10-11T15:50:42.683Z,21.80
2022-10-11T15:53:37.171Z,21.80
2022-10-11T15:56:33.812Z,21.70
2022-10-11T15:59:28.540Z,21.60
2022-10-11T16:02:23.008Z,21.60
2022-10-11T16:05:19.636Z,21.50
2022-10-11T16:08:14.143Z,21.50
2022-10-11T16:11:10.022Z,21.40
2022-10-11T16:14:04.347Z,21.30
2022-10-11T16:17:01.271Z,21.20
2022-10-11T16:19:55.684Z,21.10
2022-10-11T16:22:51.610Z,21.10
2022-10-11T16:25:45.902Z,21.00
2022-10-11T16:28:41.090Z,20.90
2022-10-11T16:31:35.571Z,20.80
2022-10-11T16:34:30.032Z,20.80
2022-10-11T16:37:24.350Z,20.80
2022-10-11T16:40:21.669Z,20.80
2022-10-11T16:43:15.443Z,20.80
2022-10-11T16:46:09.847Z,20.80
2022-10-11T16:49:04.555Z,20.80
2022-10-11T16:52:06.080Z,20.80
2022-10-11T16:55:00.394Z,20.70
2022-10-11T16:57:54.773Z,20.70
2022-10-11T17:00:49.171Z,20.70
2022-10-11T17:03:43.507Z,20.70
2022-10-11T17:06:38.007Z,20.70
2022-10-11T17:09:32.465Z,20.70
2022-10-11T17:12:27.301Z,20.60
2022-10-11T17:15:23.242Z,20.60
2022-10-11T17:18:18.719Z,20.40
2022-10-11T17:21:18.705Z,20.30
2022-10-11T17:24:13.105Z,20.20
2022-10-11T17:27:08.695Z,20.20
2022-10-11T17:30:03.019Z,20.20
2022-10-11T17:32:57.443Z,20.20
2022-10-11T17:35:51.813Z,20.30
2022-10-11T17:38:47.249Z,20.30
2022-10-11T17:41:41.736Z,20.30
2022-10-11T17:44:37.045Z,20.30
2022-10-11T17:47:31.537Z,20.30
2022-10-11T17:50:25.842Z,20.30
2022-10-11T17:53:20.656Z,20.20
2022-10-11T17:56:26.727Z,20.20
2022-10-11T17:59:23.100Z,20.20
2022-10-11T18:02:17.555Z,20.20
2022-10-11T18:05:15.498Z,20.20
2022-10-11T18:08:10.986Z,20.10
2022-10-11T18:11:06.087Z,20.10
2022-10-11T18:14:00.722Z,20.10
2022-10-11T18:16:55.129Z,20.10
2022-10-11T18:19:49.570Z,20.10
2022-10-11T18:22:43.892Z,20.10
2022-10-11T18:25:38.424Z,20.10
2022-10-11T18:28:33.826Z,20.10
2022-10-11T18:31:31.080Z,20.10
2022-10-11T18:34:25.437Z,20.10
2022-10-11T18:37:19.822Z,20.10
2022-10-11T18:40:14.170Z,20.00
2022-10-11T18:43:08.563Z,20.00
2022-10-11T18:46:08.247Z,19.90
2022-10-11T18:49:03.466Z,19.90
2022-10-11T18:51:57.796Z,19.80
2022-10-11T18:54:52.357Z,19.90
2022-10-11T18:57:46.750Z,19.80
2022-10-11T19:00:42.235Z,19.80
2022-10-11T19:03:36.947Z,19.80
2022-10-11T19:06:36.640Z,19.70
2022-10-11T19:09:31.904Z,19.70
2022-10-11T19:12:26.322Z,19.60
2022-10-11T19:15:24.196Z,19.40
2022-10-11T19:18:22.300Z,19.40
2022-10-11T19:21:16.680Z,19.40
2022-10-11T19:24:11.274Z,19.40
2022-10-11T19:27:05.763Z,19.40
2022-10-11T19:30:00.140Z,19.30
2022-10-11T19:32:54.525Z,19.30
2022-10-11T19:35:59.021Z,19.30
2022-10-11T19:38:58.712Z,19.30
2022-10-11T19:41:53.628Z,19.30
2022-10-11T19:44:47.976Z,19.40
2022-10-11T19:47:42.282Z,19.40
2022-10-11T19:50:36.601Z,19.40
2022-10-11T19:53:30.990Z,19.40
2022-10-11T19:56:29.442Z,19.40
2022-10-11T19:59:23.856Z,19.40
2022-10-11T20:02:18.168Z,19.40
2022-10-11T20:05:12.530Z,19.40
2022-10-11T20:08:06.922Z,19.50
2022-10-11T20:11:03.533Z,19.50
2022-10-11T20:13:58.573Z,19.40
2022-10-11T20:16:53.573Z,19.40
2022-10-11T20:19:48.068Z,19.40
2022-10-11T20:22:42.514Z,19.40
2022-10-11T20:25:36.831Z,19.40
2022-10-11T20:28:32.948Z,19.40
2022-10-11T20:31:33.179Z,19.40
2022-10-11T20:34:28.922Z,19.40
2022-10-11T20:37:23.289Z,19.40
2022-10-11T20:40:17.750Z,19.40
2022-10-11T20:43:12.058Z,19.40
2022-10-11T20:46:10.386Z,19.30
2022-10-11T20:49:07.448Z,19.20
2022-10-11T20:52:01.833Z,19.20
2022-10-11T20:54:56.284Z,19.20
2022-10-11T20:57:50.648Z,19.20
2022-10-11T21:00:45.684Z,19.30
2022-10-11T21:03:40.307Z,19.30
2022-10-11T21:06:35.570Z,19.40
2022-10-11T21:09:29.935Z,19.40
2022-10-11T21:12:24.279Z,19.40
2022-10-11T21:15:18.845Z,19.40
2022-10-11T21:18:15.001Z,19.40
2022-10-11T21:21:15.381Z,19.40
2022-10-11T21:24:09.792Z,19.40
2022-10-11T21:27:04.321Z,19.30
2022-10-11T21:29:58.969Z,19.20
2022-10-11T21:32:58.427Z,19.20
2022-10-11T21:35:55.774Z,19.10
2022-10-11T21:38:49.895Z,19.10
2022-10-11T21:41:44.265Z,19.10
2022-10-11T21:44:39.980Z,19.00
2022-10-11T21:47:38.839Z,18.80
2022-10-11T21:50:34.261Z,18.80
2022-10-11T21:53:28.578Z,18.90
2022-10-11T21:56:23.035Z,18.90
2022-10-11T21:59:17.407Z,18.90
2022-10-11T22:02:11.826Z,18.90
2022-10-11T22:05:07.353Z,19.00
2022-10-11T22:08:01.782Z,19.00
2022-10-11T22:10:58.610Z,19.10
2022-10-11T22:13:52.980Z,19.10
2022-10-11T22:16:47.543Z,19.10
2022-10-11T22:19:42.240Z,19.10
2022-10-11T22:22:36.970Z,19.10
2022-10-11T22:25:31.904Z,19.10
2022-10-11T22:28:26.364Z,19.10
2022-10-11T22:31:22.068Z,19.10
2022-10-11T22:34:16.363Z,19.10
2022-10-11T22:37:11.463Z,19.10
2022-10-11T22:40:06.232Z,19.10
2022-10-11T22:43:00.757Z,19.10
2022-10-11T22:45:55.297Z,19.20
2022-10-11T22:48:49.803Z,19.20
2022-10-11T22:51:44.117Z,19.20
2022-10-11T22:54:38.534Z,19.20
2022-10-11T22:57:32.943Z,19.20
2022-10-11T23:00:27.431Z,19.10
2022-10-11T23:03:22.538Z,19.10
2022-10-11T23:06:17.029Z,19.00
2022-10-11T23:09:11.384Z,18.90
2022-10-11T23:12:05.951Z,18.90
2022-10-11T23:15:00.265Z,19.00
2022-10-11T23:17:54.670Z,19.00
2022-10-11T23:20:49.043Z,19.00
2022-10-11T23:23:43.431Z,19.00
2022-10-11T23:26:37.783Z,19.00
2022-10-11T23:29:33.036Z,19.00
2022-10-11T23:32:27.406Z,19.00
2022-10-11T23:35:21.762Z,19.10
2022-10-11T23:38:16.195Z,19.10
2022-10-11T23:41:10.728Z,19.10
2022-10-11T23:44:05.067Z,19.00
2022-10-11T23:46:59.636Z,19.00
2022-10-11T23:49:54.164Z,19.00
2022-10-11T23:52:48.545Z,19.10
2022-10-11T23:55:43.716Z,19.00
2022-10-11T23:58:38.158Z,19.10
